createdAt,value
2022-12-03T00:00:28.466Z,1018.56
2022-12-03T00:01:25.636Z,1018.55
2022-12-03T00:02:25.703Z,1018.58
2022-12-03T00:03:25.680Z,1018.45
2022-12-03T00:04:25.597Z,1018.46
2022-12-03T00:05:26.550Z,1018.54
2022-12-03T00:06:26.304Z,1018.47
2022-12-03T00:07:25.586Z,1018.49
2022-12-03T00:08:26.507Z,1018.49
2022-12-03T00:09:25.540Z,1018.49
2022-12-03T00:10:25.532Z,1018.53
2022-12-03T00:11:25.529Z,1018.52
2022-12-03T00:12:25.557Z,1018.52
2022-12-03T00:13:25.496Z,1018.48
2022-12-03T00:14:25.490Z,1018.49
2022-12-03T00:15:25.491Z,1018.49
2022-12-03T00:16:25.545Z,1018.47
2022-12-03T00:17:25.448Z,1018.50
2022-12-03T00:18:25.473Z,1018.55
2022-12-03T00:19:25.433Z,1018.50
2022-12-03T00:20:25.441Z,1018.47
2022-12-03T00:21:25.409Z,1018.49
2022-12-03T00:22:25.402Z,1018.46
2022-12-03T00:23:25.385Z,1018.49
2022-12-03T00:24:25.380Z,1018.50
2022-12-03T00:25:25.395Z,1018.43
2022-12-03T00:26:25.354Z,1018.44
2022-12-03T00:27:25.346Z,1018.47
2022-12-03T00:28:25.352Z,1018.51
2022-12-03T00:29:25.336Z,1018.47
2022-12-03T00:30:25.337Z,1018.41
2022-12-03T00:31:25.373Z,1018.46
2022-12-03T00:32:25.324Z,1018.41
2022-12-03T00:33:25.283Z,1018.43
2022-12-03T00:34:25.274Z,1018.44
2022-12-03T00:35:26.217Z,1018.44
2022-12-03T00:36:25.274Z,1018.41
2022-12-03T00:37:25.263Z,1018.36
2022-12-03T00:38:25.220Z,1018.40
2022-12-03T00:39:25.215Z,1018.37
2022-12-03T00:40:25.204Z,1018.39
2022-12-03T00:41:25.181Z,1018.34
2022-12-03T00:42:25.218Z,1018.36
2022-12-03T00:43:25.185Z,1018.31
2022-12-03T00:44:25.165Z,1018.28
2022-12-03T00:45:25.148Z,1018.38
2022-12-03T00:46:25.222Z,1018.36
2022-12-03T00:47:25.174Z,1018.34
2022-12-03T00:48:25.108Z,1018.34
2022-12-03T00:49:25.105Z,1018.39
2022-12-03T00:50:25.096Z,1018.36
2022-12-03T00:51:25.080Z,1018.35
2022-12-03T00:52:25.071Z,1018.34
2022-12-03T00:53:25.098Z,1018.35
2022-12-03T00:54:31.407Z,1018.38
2022-12-03T00:55:26.028Z,1018.35
2022-12-03T00:56:25.032Z,1018.39
2022-12-03T00:57:25.015Z,1018.40
2022-12-03T00:58:25.016Z,1018.37
2022-12-03T00:59:25.011Z,1018.34
2022-12-03T01:00:24.987Z,1018.38
2022-12-03T01:01:25.023Z,1018.37
2022-12-03T01:02:24.968Z,1018.39
2022-12-03T01:03:24.948Z,1018.28
2022-12-03T01:04:25.005Z,1018.40
2022-12-03T01:05:24.933Z,1018.36
2022-12-03T01:06:24.915Z,1018.41
2022-12-03T01:07:24.982Z,1018.38
2022-12-03T01:08:24.906Z,1018.37
2022-12-03T01:09:24.909Z,1018.41
2022-12-03T01:10:24.883Z,1018.46
2022-12-03T01:11:24.860Z,1018.40
2022-12-03T01:12:24.848Z,1018.44
2022-12-03T01:13:24.840Z,1018.42
2022-12-03T01:14:24.872Z,1018.37
2022-12-03T01:15:24.815Z,1018.42
2022-12-03T01:16:24.885Z,1018.47
2022-12-03T01:17:24.807Z,1018.44
2022-12-03T01:18:24.810Z,1018.41
2022-12-03T01:19:24.771Z,1018.42
2022-12-03T01:20:24.760Z,1018.46
2022-12-03T01:21:24.750Z,1018.39
2022-12-03T01:22:24.771Z,1018.42
2022-12-03T01:23:24.738Z,1018.45
2022-12-03T01:24:24.731Z,1018.39
2022-12-03T01:25:24.701Z,1018.36
2022-12-03T01:26:24.743Z,1018.44
2022-12-03T01:27:24.681Z,1018.38
2022-12-03T01:28:24.720Z,1018.42
2022-12-03T01:29:24.672Z,1018.44
2022-12-03T01:30:24.665Z,1018.44
2022-12-03T01:31:24.722Z,1018.48
2022-12-03T01:32:24.623Z,1018.41
2022-12-03T01:33:24.622Z,1018.38
2022-12-03T01:34:24.647Z,1018.47
2022-12-03T01:35:24.602Z,1018.42
2022-12-03T01:36:24.583Z,1018.37
2022-12-03T01:37:24.576Z,1018.40
2022-12-03T01:38:25.522Z,1018.40
2022-12-03T01:39:24.581Z,1018.37
2022-12-03T01:40:24.592Z,1018.36
2022-12-03T01:41:24.533Z,1018.34
2022-12-03T01:42:24.524Z,1018.37
2022-12-03T01:43:24.497Z,1018.44
2022-12-03T01:44:24.507Z,1018.41
2022-12-03T01:45:24.485Z,1018.38
2022-12-03T01:46:24.589Z,1018.38
2022-12-03T01:47:24.478Z,1018.33
2022-12-03T01:48:24.469Z,1018.41
2022-12-03T01:49:24.463Z,1018.39
2022-12-03T01:50:24.439Z,1018.31
2022-12-03T01:51:24.438Z,1018.36
2022-12-03T01:52:24.449Z,1018.39
2022-12-03T01:53:24.430Z,1018.34
2022-12-03T01:54:24.406Z,1018.35
2022-12-03T01:55:24.375Z,1018.32
2022-12-03T01:56:24.379Z,1018.28
2022-12-03T01:57:24.361Z,1018.23
2022-12-03T01:58:24.344Z,1018.30
2022-12-03T01:59:24.357Z,1018.32
2022-12-03T02:00:24.330Z,1018.31
2022-12-03T02:01:24.387Z,1018.34
2022-12-03T02:02:24.318Z,1018.27
2022-12-03T02:03:24.301Z,1018.32
2022-12-03T02:04:24.360Z,1018.33
2022-12-03T02:05:24.269Z,1018.31
2022-12-03T02:06:24.282Z,1018.29
2022-12-03T02:07:24.338Z,1018.32
2022-12-03T02:08:24.247Z,1018.33
2022-12-03T02:09:24.248Z,1018.28
2022-12-03T02:10:24.230Z,1018.23
2022-12-03T02:11:24.205Z,1018.32
2022-12-03T02:12:24.230Z,1018.29
2022-12-03T02:13:24.181Z,1018.25
2022-12-03T02:14:24.180Z,1018.26
2022-12-03T02:15:24.159Z,1018.25
2022-12-03T02:16:24.203Z,1018.23
2022-12-03T02:17:24.130Z,1018.26
2022-12-03T02:18:24.160Z,1018.21
2022-12-03T02:19:24.111Z,1018.23
2022-12-03T02:20:24.116Z,1018.26
2022-12-03T02:21:24.119Z,1018.24
2022-12-03T02:22:24.091Z,1018.27
2022-12-03T02:23:24.077Z,1018.22
2022-12-03T02:24:25.036Z,1018.24
2022-12-03T02:25:24.072Z,1018.28
2022-12-03T02:26:24.040Z,1018.21
2022-12-03T02:27:24.042Z,1018.24
2022-12-03T02:28:24.072Z,1018.18
2022-12-03T02:29:24.002Z,1018.17
2022-12-03T02:30:24.056Z,1018.18
2022-12-03T02:31:24.056Z,1018.16
2022-12-03T02:32:23.985Z,1018.15
2022-12-03T02:33:23.991Z,1018.15
2022-12-03T02:34:23.962Z,1018.17
2022-12-03T02:35:23.958Z,1018.10
2022-12-03T02:36:23.953Z,1018.18
2022-12-03T02:37:23.911Z,1018.09
2022-12-03T02:38:23.905Z,1018.09
2022-12-03T02:39:23.909Z,1018.11
2022-12-03T02:40:23.900Z,1018.11
2022-12-03T02:41:23.864Z,1018.14
2022-12-03T02:42:23.881Z,1018.00
2022-12-03T02:43:23.855Z,1018.08
2022-12-03T02:44:23.893Z,1018.06
2022-12-03T02:45:23.834Z,1018.05
2022-12-03T02:46:23.883Z,1018.04
2022-12-03T02:47:23.803Z,1018.01
2022-12-03T02:48:23.862Z,1018.02
2022-12-03T02:49:23.780Z,1017.96
2022-12-03T02:50:23.779Z,1018.01
2022-12-03T02:51:23.795Z,1018.06
2022-12-03T02:52:23.750Z,1017.99
2022-12-03T02:53:23.772Z,1018.04
2022-12-03T02:54:23.768Z,1018.02
2022-12-03T02:55:23.709Z,1018.01
2022-12-03T02:56:23.720Z,1018.00
2022-12-03T02:57:23.718Z,1017.96
2022-12-03T02:58:23.691Z,1017.95
2022-12-03T02:59:23.709Z,1018.00
2022-12-03T03:00:23.668Z,1017.95
2022-12-03T03:01:23.771Z,1017.97
2022-12-03T03:02:23.734Z,1018.02
2022-12-03T03:03:23.630Z,1017.97
2022-12-03T03:04:23.647Z,1017.99
2022-12-03T03:05:23.660Z,1018.02
2022-12-03T03:06:23.604Z,1017.98
2022-12-03T03:07:23.816Z,1017.96
2022-12-03T03:08:23.613Z,1017.98
2022-12-03T03:09:23.563Z,1018.00
2022-12-03T03:10:23.578Z,1018.00
2022-12-03T03:11:23.559Z,1018.04
2022-12-03T03:12:23.536Z,1017.96
2022-12-03T03:13:23.545Z,1018.03
2022-12-03T03:14:23.521Z,1018.04
2022-12-03T03:15:23.500Z,1017.97
2022-12-03T03:16:23.541Z,1017.93
2022-12-03T03:17:23.501Z,1017.96
2022-12-03T03:18:23.480Z,1017.91
2022-12-03T03:19:23.451Z,1017.95
2022-12-03T03:20:23.477Z,1017.90
2022-12-03T03:21:23.463Z,1017.93
2022-12-03T03:22:23.431Z,1017.97
2022-12-03T03:23:23.425Z,1017.93
2022-12-03T03:24:23.404Z,1017.92
2022-12-03T03:25:24.332Z,1017.92
2022-12-03T03:26:23.405Z,1017.89
2022-12-03T03:27:23.392Z,1017.90
2022-12-03T03:28:23.376Z,1017.99
2022-12-03T03:29:23.362Z,1017.97
2022-12-03T03:30:23.351Z,1017.96
2022-12-03T03:31:23.354Z,1017.92
2022-12-03T03:32:23.319Z,1017.92
2022-12-03T03:33:23.302Z,1017.99
2022-12-03T03:34:23.332Z,1017.94
2022-12-03T03:35:23.273Z,1017.92
2022-12-03T03:36:23.276Z,1017.93
2022-12-03T03:37:23.271Z,1017.92
2022-12-03T03:38:23.265Z,1017.99
2022-12-03T03:39:23.297Z,1017.97
2022-12-03T03:40:23.243Z,1017.94
2022-12-03T03:41:23.218Z,1017.98
2022-12-03T03:42:23.205Z,1017.96
2022-12-03T03:43:23.202Z,1017.93
2022-12-03T03:44:23.185Z,1017.98
2022-12-03T03:45:28.827Z,1017.96
2022-12-03T03:46:24.235Z,1017.96
2022-12-03T03:47:23.156Z,1017.95
2022-12-03T03:48:23.156Z,1017.93
2022-12-03T03:49:23.126Z,1017.95
2022-12-03T03:50:23.145Z,1017.91
2022-12-03T03:51:23.095Z,1017.90
2022-12-03T03:52:24.055Z,1017.93
2022-12-03T03:53:24.028Z,1017.94
2022-12-03T03:54:23.065Z,1017.92
2022-12-03T03:55:23.092Z,1017.89
2022-12-03T03:56:23.080Z,1017.88
2022-12-03T03:57:23.049Z,1017.91
2022-12-03T03:58:23.983Z,1017.87
2022-12-03T03:59:23.038Z,1017.90
2022-12-03T04:00:23.016Z,1017.89
2022-12-03T04:01:23.031Z,1017.87
2022-12-03T04:02:23.022Z,1017.85
2022-12-03T04:03:22.989Z,1017.91
2022-12-03T04:04:23.019Z,1017.93
2022-12-03T04:05:22.959Z,1017.87
2022-12-03T04:06:22.970Z,1017.84
2022-12-03T04:07:22.945Z,1017.84
2022-12-03T04:08:22.930Z,1017.90
2022-12-03T04:09:22.939Z,1017.81
2022-12-03T04:10:22.917Z,1017.83
2022-12-03T04:11:22.918Z,1017.84
2022-12-03T04:12:22.878Z,1017.85
2022-12-03T04:13:22.889Z,1017.81
2022-12-03T04:14:22.855Z,1017.77
2022-12-03T04:15:22.845Z,1017.84
2022-12-03T04:16:22.904Z,1017.82
2022-12-03T04:17:22.820Z,1017.76
2022-12-03T04:18:23.020Z,1017.79
2022-12-03T04:19:23.755Z,1017.76
2022-12-03T04:20:22.790Z,1017.78
2022-12-03T04:21:22.783Z,1017.76
2022-12-03T04:22:22.768Z,1017.73
2022-12-03T04:23:27.743Z,1017.78
2022-12-03T04:24:23.789Z,1017.78
2022-12-03T04:25:22.762Z,1017.73
2022-12-03T04:26:22.720Z,1017.79
2022-12-03T04:27:22.730Z,1017.76
2022-12-03T04:28:22.700Z,1017.80
2022-12-03T04:29:22.721Z,1017.80
2022-12-03T04:30:22.821Z,1017.75
2022-12-03T04:31:22.736Z,1017.71
2022-12-03T04:32:23.618Z,1017.75
2022-12-03T04:33:22.680Z,1017.78
2022-12-03T04:34:22.655Z,1017.74
2022-12-03T04:35:22.724Z,1017.75
2022-12-03T04:36:22.604Z,1017.72
2022-12-03T04:37:22.605Z,1017.74
2022-12-03T04:38:22.583Z,1017.76
2022-12-03T04:39:22.614Z,1017.68
2022-12-03T04:40:22.571Z,1017.70
2022-12-03T04:41:22.575Z,1017.67
2022-12-03T04:42:22.548Z,1017.74
2022-12-03T04:43:22.550Z,1017.69
2022-12-03T04:44:22.525Z,1017.69
2022-12-03T04:45:22.543Z,1017.66
2022-12-03T04:46:22.567Z,1017.62
2022-12-03T04:47:22.514Z,1017.65
2022-12-03T04:48:22.540Z,1017.61
2022-12-03T04:49:22.488Z,1017.66
2022-12-03T04:50:22.489Z,1017.64
2022-12-03T04:51:22.443Z,1017.64
2022-12-03T04:52:22.439Z,1017.58
2022-12-03T04:53:22.437Z,1017.55
2022-12-03T04:54:22.447Z,1017.60
2022-12-03T04:55:22.415Z,1017.55
2022-12-03T04:56:22.390Z,1017.62
2022-12-03T04:57:22.410Z,1017.57
2022-12-03T04:58:22.380Z,1017.58
2022-12-03T04:59:22.367Z,1017.63
2022-12-03T05:00:22.358Z,1017.58
2022-12-03T05:01:22.577Z,1017.56
2022-12-03T05:02:22.361Z,1017.64
2022-12-03T05:03:22.323Z,1017.64
2022-12-03T05:04:23.298Z,1017.65
2022-12-03T05:05:22.478Z,1017.67
2022-12-03T05:06:22.300Z,1017.60
2022-12-03T05:07:22.282Z,1017.68
2022-12-03T05:08:22.259Z,1017.62
2022-12-03T05:09:22.251Z,1017.63
2022-12-03T05:10:22.279Z,1017.57
2022-12-03T05:11:22.704Z,1017.69
2022-12-03T05:12:22.218Z,1017.61
2022-12-03T05:13:22.214Z,1017.68
2022-12-03T05:14:22.201Z,1017.68
2022-12-03T05:15:23.641Z,1017.68
2022-12-03T05:16:22.291Z,1017.72
2022-12-03T05:17:22.169Z,1017.64
2022-12-03T05:18:22.798Z,1017.65
2022-12-03T05:19:23.112Z,1017.65
2022-12-03T05:20:22.164Z,1017.69
2022-12-03T05:21:22.308Z,1017.65
2022-12-03T05:22:22.151Z,1017.64
2022-12-03T05:23:22.126Z,1017.60
2022-12-03T05:24:22.083Z,1017.58
2022-12-03T05:25:22.092Z,1017.62
2022-12-03T05:26:22.061Z,1017.55
2022-12-03T05:27:24.053Z,1017.62
2022-12-03T05:28:22.089Z,1017.66
2022-12-03T05:29:22.041Z,1017.61
2022-12-03T05:30:22.083Z,1017.62
2022-12-03T05:31:22.102Z,1017.61
2022-12-03T05:32:21.994Z,1017.61
2022-12-03T05:33:22.132Z,1017.66
2022-12-03T05:34:22.030Z,1017.53
2022-12-03T05:35:21.975Z,1017.59
2022-12-03T05:36:21.959Z,1017.55
2022-12-03T05:37:21.958Z,1017.57
2022-12-03T05:38:21.934Z,1017.57
2022-12-03T05:39:21.932Z,1017.56
2022-12-03T05:40:21.946Z,1017.53
2022-12-03T05:41:22.649Z,1017.49
2022-12-03T05:42:21.895Z,1017.54
2022-12-03T05:43:21.877Z,1017.54
2022-12-03T05:44:21.875Z,1017.51
2022-12-03T05:45:21.869Z,1017.57
2022-12-03T05:46:21.959Z,1017.57
2022-12-03T05:47:21.865Z,1017.54
2022-12-03T05:48:21.822Z,1017.52
2022-12-03T05:49:22.665Z,1017.52
2022-12-03T05:50:22.448Z,1017.54
2022-12-03T05:51:21.795Z,1017.61
2022-12-03T05:52:22.176Z,1017.58
2022-12-03T05:53:21.785Z,1017.56
2022-12-03T05:54:23.238Z,1017.54
2022-12-03T05:55:21.766Z,1017.52
2022-12-03T05:56:21.742Z,1017.53
2022-12-03T05:57:21.728Z,1017.56
2022-12-03T05:58:21.759Z,1017.52
2022-12-03T05:59:21.713Z,1017.55
2022-12-03T06:00:21.920Z,1017.55
2022-12-03T06:01:22.652Z,1017.53
2022-12-03T06:02:21.777Z,1017.58
2022-12-03T06:03:23.193Z,1017.58
2022-12-03T06:04:21.688Z,1017.61
2022-12-03T06:05:22.110Z,1017.57
2022-12-03T06:06:21.619Z,1017.55
2022-12-03T06:07:21.637Z,1017.58
2022-12-03T06:08:21.629Z,1017.57
2022-12-03T06:09:21.616Z,1017.59
2022-12-03T06:10:21.646Z,1017.52
2022-12-03T06:11:21.600Z,1017.65
2022-12-03T06:12:21.561Z,1017.54
2022-12-03T06:13:21.566Z,1017.59
2022-12-03T06:14:21.565Z,1017.60
2022-12-03T06:15:22.495Z,1017.59
2022-12-03T06:16:21.600Z,1017.53
2022-12-03T06:17:21.520Z,1017.54
2022-12-03T06:18:21.501Z,1017.47
2022-12-03T06:19:22.969Z,1017.56
2022-12-03T06:20:21.485Z,1017.53
2022-12-03T06:21:21.501Z,1017.54
2022-12-03T06:22:21.471Z,1017.53
2022-12-03T06:23:21.450Z,1017.48
2022-12-03T06:24:21.441Z,1017.45
2022-12-03T06:25:22.261Z,1017.50
2022-12-03T06:26:21.413Z,1017.43
2022-12-03T06:27:21.485Z,1017.41
2022-12-03T06:28:21.383Z,1017.45
2022-12-03T06:29:22.158Z,1017.43
2022-12-03T06:30:21.374Z,1017.49
2022-12-03T06:31:22.911Z,1017.45
2022-12-03T06:32:21.343Z,1017.47
2022-12-03T06:33:22.184Z,1017.49
2022-12-03T06:34:21.327Z,1017.43
2022-12-03T06:35:21.381Z,1017.44
2022-12-03T06:36:23.318Z,1017.44
2022-12-03T06:37:21.323Z,1017.44
2022-12-03T06:38:21.323Z,1017.44
2022-12-03T06:39:21.279Z,1017.40
2022-12-03T06:40:21.288Z,1017.38
2022-12-03T06:41:21.443Z,1017.37
2022-12-03T06:42:21.554Z,1017.35
2022-12-03T06:43:21.315Z,1017.35
2022-12-03T06:44:21.245Z,1017.36
2022-12-03T06:45:21.245Z,1017.36
2022-12-03T06:46:21.257Z,1017.38
2022-12-03T06:47:21.241Z,1017.34
2022-12-03T06:48:22.137Z,1017.33
2022-12-03T06:49:21.167Z,1017.43
2022-12-03T06:50:21.351Z,1017.38
2022-12-03T06:51:22.119Z,1017.34
2022-12-03T06:52:21.131Z,1017.32
2022-12-03T06:53:22.088Z,1017.36
2022-12-03T06:54:21.296Z,1017.41
2022-12-03T06:55:21.135Z,1017.31
2022-12-03T06:56:22.545Z,1017.39
2022-12-03T06:57:21.087Z,1017.44
2022-12-03T06:58:21.198Z,1017.39
2022-12-03T06:59:21.045Z,1017.39
2022-12-03T07:00:21.071Z,1017.44
2022-12-03T07:01:21.478Z,1017.35
2022-12-03T07:02:21.042Z,1017.43
2022-12-03T07:03:21.093Z,1017.42
2022-12-03T07:04:21.009Z,1017.43
2022-12-03T07:05:21.963Z,1017.47
2022-12-03T07:06:20.980Z,1017.46
2022-12-03T07:07:21.384Z,1017.50
2022-12-03T07:08:20.964Z,1017.47
2022-12-03T07:09:20.944Z,1017.42
2022-12-03T07:10:20.920Z,1017.46
2022-12-03T07:11:20.930Z,1017.47
2022-12-03T07:12:22.365Z,1017.48
2022-12-03T07:13:21.904Z,1017.46
2022-12-03T07:14:20.880Z,1017.44
2022-12-03T07:15:22.855Z,1017.46
2022-12-03T07:16:20.924Z,1017.51
2022-12-03T07:17:20.884Z,1017.41
2022-12-03T07:18:20.845Z,1017.39
2022-12-03T07:19:21.759Z,1017.43
2022-12-03T07:20:22.284Z,1017.46
2022-12-03T07:21:21.041Z,1017.38
2022-12-03T07:22:20.795Z,1017.38
2022-12-03T07:23:20.831Z,1017.48
2022-12-03T07:24:20.818Z,1017.33
2022-12-03T07:25:23.421Z,1017.44
2022-12-03T07:26:20.758Z,1017.42
2022-12-03T07:27:20.743Z,1017.50
2022-12-03T07:28:20.869Z,1017.50
2022-12-03T07:29:20.758Z,1017.41
2022-12-03T07:30:20.714Z,1017.42
2022-12-03T07:31:20.774Z,1017.43
2022-12-03T07:32:20.785Z,1017.49
2022-12-03T07:33:20.674Z,1017.44
2022-12-03T07:34:20.717Z,1017.44
2022-12-03T07:35:20.659Z,1017.39
2022-12-03T07:36:20.649Z,1017.45
2022-12-03T07:37:23.260Z,1017.41
2022-12-03T07:38:20.623Z,1017.43
2022-12-03T07:39:20.628Z,1017.42
2022-12-03T07:40:20.661Z,1017.41
2022-12-03T07:41:21.549Z,1017.39
2022-12-03T07:42:20.580Z,1017.46
2022-12-03T07:43:20.687Z,1017.45
2022-12-03T07:44:20.594Z,1017.44
2022-12-03T07:45:20.567Z,1017.41
2022-12-03T07:46:20.594Z,1017.42
2022-12-03T07:47:20.569Z,1017.39
2022-12-03T07:48:20.726Z,1017.45
2022-12-03T07:49:20.522Z,1017.42
2022-12-03T07:50:20.499Z,1017.44
2022-12-03T07:51:20.529Z,1017.45
2022-12-03T07:52:20.471Z,1017.43
2022-12-03T07:53:20.469Z,1017.41
2022-12-03T07:54:20.448Z,1017.41
2022-12-03T07:55:21.902Z,1017.36
2022-12-03T07:56:20.437Z,1017.38
2022-12-03T07:57:20.465Z,1017.36
2022-12-03T07:58:20.433Z,1017.36
2022-12-03T07:59:20.398Z,1017.38
2022-12-03T08:00:20.423Z,1017.36
2022-12-03T08:01:20.447Z,1017.41
2022-12-03T08:02:21.793Z,1017.39
2022-12-03T08:03:20.382Z,1017.31
2022-12-03T08:04:20.348Z,1017.37
2022-12-03T08:05:20.327Z,1017.36
2022-12-03T08:06:20.311Z,1017.42
2022-12-03T08:07:20.299Z,1017.40
2022-12-03T08:08:20.428Z,1017.39
2022-12-03T08:09:21.203Z,1017.38
2022-12-03T08:10:20.407Z,1017.41
2022-12-03T08:11:20.263Z,1017.39
2022-12-03T08:12:20.242Z,1017.41
2022-12-03T08:13:20.269Z,1017.40
2022-12-03T08:14:20.276Z,1017.45
2022-12-03T08:15:21.172Z,1017.43
2022-12-03T08:16:21.219Z,1017.48
2022-12-03T08:17:20.203Z,1017.54
2022-12-03T08:18:20.184Z,1017.53
2022-12-03T08:19:20.185Z,1017.46
2022-12-03T08:20:20.647Z,1017.47
2022-12-03T08:21:20.237Z,1017.38
2022-12-03T08:22:20.153Z,1017.41
2022-12-03T08:23:20.137Z,1017.40
2022-12-03T08:24:20.123Z,1017.43
2022-12-03T08:25:20.105Z,1017.36
2022-12-03T08:26:20.123Z,1017.38
2022-12-03T08:27:20.207Z,1017.37
2022-12-03T08:28:20.088Z,1017.37
2022-12-03T08:29:20.295Z,1017.39
2022-12-03T08:30:20.124Z,1017.37
2022-12-03T08:31:20.177Z,1017.34
2022-12-03T08:32:20.111Z,1017.44
2022-12-03T08:33:20.043Z,1017.42
2022-12-03T08:34:20.018Z,1017.35
2022-12-03T08:35:20.021Z,1017.35
2022-12-03T08:36:19.994Z,1017.39
2022-12-03T08:37:19.993Z,1017.37
2022-12-03T08:38:20.076Z,1017.39
2022-12-03T08:39:19.965Z,1017.37
2022-12-03T08:40:19.945Z,1017.36
2022-12-03T08:41:20.120Z,1017.40
2022-12-03T08:42:20.078Z,1017.41
2022-12-03T08:43:19.946Z,1017.43
2022-12-03T08:44:19.945Z,1017.45
2022-12-03T08:45:19.890Z,1017.46
2022-12-03T08:46:19.951Z,1017.38
2022-12-03T08:47:19.870Z,1017.40
2022-12-03T08:48:19.869Z,1017.38
2022-12-03T08:49:19.857Z,1017.38
2022-12-03T08:50:19.866Z,1017.40
2022-12-03T08:51:20.013Z,1017.43
2022-12-03T08:52:19.839Z,1017.39
2022-12-03T08:53:19.802Z,1017.44
2022-12-03T08:54:19.820Z,1017.38
2022-12-03T08:55:19.799Z,1017.41
2022-12-03T08:56:19.952Z,1017.39
2022-12-03T08:57:21.708Z,1017.44
2022-12-03T08:58:19.823Z,1017.39
2022-12-03T08:59:19.833Z,1017.42
2022-12-03T09:00:19.769Z,1017.36
2022-12-03T09:01:19.816Z,1017.37
2022-12-03T09:02:19.726Z,1017.40
2022-12-03T09:03:19.765Z,1017.42
2022-12-03T09:04:19.759Z,1017.41
2022-12-03T09:05:19.671Z,1017.40
2022-12-03T09:06:20.493Z,1017.46
2022-12-03T09:07:19.661Z,1017.43
2022-12-03T09:08:19.820Z,1017.44
2022-12-03T09:09:21.095Z,1017.47
2022-12-03T09:10:19.737Z,1017.48
2022-12-03T09:11:19.607Z,1017.46
2022-12-03T09:12:19.980Z,1017.50
2022-12-03T09:13:19.896Z,1017.48
2022-12-03T09:14:20.598Z,1017.45
2022-12-03T09:15:19.574Z,1017.53
2022-12-03T09:16:19.774Z,1017.46
2022-12-03T09:17:19.775Z,1017.46
2022-12-03T09:18:19.984Z,1017.49
2022-12-03T09:19:19.711Z,1017.51
2022-12-03T09:20:19.510Z,1017.45
2022-12-03T09:21:19.511Z,1017.48
2022-12-03T09:22:20.342Z,1017.51
2022-12-03T09:23:19.484Z,1017.53
2022-12-03T09:24:20.487Z,1017.55
2022-12-03T09:25:19.481Z,1017.48
2022-12-03T09:26:19.632Z,1017.49
2022-12-03T09:27:19.453Z,1017.45
2022-12-03T09:28:19.682Z,1017.44
2022-12-03T09:29:19.421Z,1017.47
2022-12-03T09:30:19.423Z,1017.46
2022-12-03T09:31:19.456Z,1017.50
2022-12-03T09:32:19.446Z,1017.50
2022-12-03T09:33:19.360Z,1017.51
2022-12-03T09:34:19.391Z,1017.52
2022-12-03T09:35:19.354Z,1017.56
2022-12-03T09:36:19.332Z,1017.54
2022-12-03T09:37:19.339Z,1017.55
2022-12-03T09:38:19.313Z,1017.49
2022-12-03T09:39:19.328Z,1017.58
2022-12-03T09:40:19.308Z,1017.50
2022-12-03T09:41:19.322Z,1017.55
2022-12-03T09:42:19.282Z,1017.51
2022-12-03T09:43:19.267Z,1017.54
2022-12-03T09:44:19.256Z,1017.52
2022-12-03T09:45:19.224Z,1017.59
2022-12-03T09:46:19.385Z,1017.54
2022-12-03T09:47:19.369Z,1017.59
2022-12-03T09:48:19.210Z,1017.56
2022-12-03T09:49:19.321Z,1017.48
2022-12-03T09:50:19.192Z,1017.53
2022-12-03T09:51:19.197Z,1017.48
2022-12-03T09:52:19.277Z,1017.50
2022-12-03T09:53:19.757Z,1017.40
2022-12-03T09:54:19.136Z,1017.39
2022-12-03T09:55:19.518Z,1017.37
2022-12-03T09:56:19.332Z,1017.34
2022-12-03T09:57:19.131Z,1017.39
2022-12-03T09:58:19.093Z,1017.33
2022-12-03T09:59:20.544Z,1017.30
2022-12-03T10:00:19.081Z,1017.31
2022-12-03T10:01:20.081Z,1017.28
2022-12-03T10:02:19.152Z,1017.30
2022-12-03T10:03:19.074Z,1017.33
2022-12-03T10:04:19.129Z,1017.30
2022-12-03T10:05:19.006Z,1017.27
2022-12-03T10:06:19.001Z,1017.26
2022-12-03T10:07:19.972Z,1017.26
2022-12-03T10:08:19.118Z,1017.29
2022-12-03T10:09:18.963Z,1017.25
2022-12-03T10:10:19.072Z,1017.20
2022-12-03T10:11:18.971Z,1017.24
2022-12-03T10:12:18.950Z,1017.25
2022-12-03T10:13:25.331Z,1017.21
2022-12-03T10:14:19.915Z,1017.17
2022-12-03T10:15:18.902Z,1017.23
2022-12-03T10:16:19.042Z,1017.23
2022-12-03T10:17:18.927Z,1017.24
2022-12-03T10:18:18.862Z,1017.16
2022-12-03T10:19:18.892Z,1017.19
2022-12-03T10:20:18.931Z,1017.20
2022-12-03T10:21:19.025Z,1017.22
2022-12-03T10:22:18.817Z,1017.14
2022-12-03T10:23:19.001Z,1017.10
2022-12-03T10:24:18.960Z,1017.11
2022-12-03T10:25:18.822Z,1017.16
2022-12-03T10:26:18.867Z,1017.08
2022-12-03T10:27:18.933Z,1017.07
2022-12-03T10:28:18.776Z,1017.02
2022-12-03T10:29:18.744Z,1017.08
2022-12-03T10:30:19.615Z,1017.05
2022-12-03T10:31:18.810Z,1017.03
2022-12-03T10:32:18.865Z,1016.97
2022-12-03T10:33:19.413Z,1017.00
2022-12-03T10:34:18.694Z,1016.98
2022-12-03T10:35:18.676Z,1016.98
2022-12-03T10:36:18.707Z,1016.99
2022-12-03T10:37:18.725Z,1016.97
2022-12-03T10:38:18.643Z,1016.90
2022-12-03T10:39:18.805Z,1016.90
2022-12-03T10:40:18.679Z,1016.87
2022-12-03T10:41:18.753Z,1016.80
2022-12-03T10:42:18.610Z,1016.85
2022-12-03T10:43:18.660Z,1016.84
2022-12-03T10:44:18.591Z,1016.77
2022-12-03T10:45:18.581Z,1016.77
2022-12-03T10:46:18.764Z,1016.77
2022-12-03T10:47:18.757Z,1016.74
2022-12-03T10:48:18.767Z,1016.71
2022-12-03T10:49:18.620Z,1016.69
2022-12-03T10:50:18.672Z,1016.73
2022-12-03T10:51:18.497Z,1016.68
2022-12-03T10:52:24.054Z,1016.74
2022-12-03T10:53:19.579Z,1016.68
2022-12-03T10:54:18.485Z,1016.69
2022-12-03T10:55:19.440Z,1016.67
2022-12-03T10:56:18.458Z,1016.63
2022-12-03T10:57:18.456Z,1016.61
2022-12-03T10:58:18.469Z,1016.60
2022-12-03T10:59:18.477Z,1016.66
2022-12-03T11:00:18.604Z,1016.57
2022-12-03T11:01:18.486Z,1016.57
2022-12-03T11:02:18.389Z,1016.58
2022-12-03T11:03:18.409Z,1016.58
2022-12-03T11:04:18.390Z,1016.56
2022-12-03T11:05:18.392Z,1016.53
2022-12-03T11:06:18.342Z,1016.53
2022-12-03T11:07:18.333Z,1016.52
2022-12-03T11:08:18.381Z,1016.51
2022-12-03T11:09:18.315Z,1016.48
2022-12-03T11:10:18.304Z,1016.48
2022-12-03T11:11:18.318Z,1016.53
2022-12-03T11:12:18.272Z,1016.49
2022-12-03T11:13:18.369Z,1016.46
2022-12-03T11:14:22.903Z,1016.52
2022-12-03T11:15:18.243Z,1016.50
2022-12-03T11:16:18.363Z,1016.53
2022-12-03T11:17:19.174Z,1016.44
2022-12-03T11:18:18.240Z,1016.46
2022-12-03T11:19:18.204Z,1016.49
2022-12-03T11:20:22.561Z,1016.45
2022-12-03T11:21:18.182Z,1016.45
2022-12-03T11:22:18.164Z,1016.43
2022-12-03T11:23:18.183Z,1016.43
2022-12-03T11:24:18.181Z,1016.44
2022-12-03T11:25:18.346Z,1016.47
2022-12-03T11:26:19.753Z,1016.43
2022-12-03T11:27:18.115Z,1016.39
2022-12-03T11:28:18.124Z,1016.41
2022-12-03T11:29:18.103Z,1016.47
2022-12-03T11:30:19.034Z,1016.44
2022-12-03T11:31:18.129Z,1016.44
2022-12-03T11:32:18.064Z,1016.42
2022-12-03T11:33:18.049Z,1016.44
2022-12-03T11:34:18.042Z,1016.40
2022-12-03T11:35:18.047Z,1016.41
2022-12-03T11:36:18.055Z,1016.40
2022-12-03T11:37:18.037Z,1016.38
2022-12-03T11:38:18.004Z,1016.35
2022-12-03T11:39:17.978Z,1016.35
2022-12-03T11:40:17.988Z,1016.28
2022-12-03T11:41:17.961Z,1016.33
2022-12-03T11:42:18.069Z,1016.28
2022-12-03T11:43:17.936Z,1016.24
2022-12-03T11:44:17.937Z,1016.25
2022-12-03T11:45:17.917Z,1016.28
2022-12-03T11:46:17.958Z,1016.23
2022-12-03T11:47:17.925Z,1016.26
2022-12-03T11:48:17.979Z,1016.20
2022-12-03T11:49:17.868Z,1016.17
2022-12-03T11:50:18.547Z,1016.21
2022-12-03T11:51:17.972Z,1016.20
2022-12-03T11:52:17.849Z,1016.21
2022-12-03T11:53:17.840Z,1016.23
2022-12-03T11:54:17.828Z,1016.18
2022-12-03T11:55:17.813Z,1016.25
2022-12-03T11:56:17.839Z,1016.21
2022-12-03T11:57:17.818Z,1016.21
2022-12-03T11:58:17.825Z,1016.25
2022-12-03T11:59:17.780Z,1016.17
2022-12-03T12:00:17.761Z,1016.11
2022-12-03T12:01:17.749Z,1016.10
2022-12-03T12:02:17.729Z,1016.05
2022-12-03T12:03:17.933Z,1016.08
2022-12-03T12:04:17.847Z,1016.06
2022-12-03T12:05:17.700Z,1016.04